Terminal Aerodrome Forecast
Issued by NWS Omaha/Valley, NE

Home | Current Version | Previous Version | Graphics & Text | Print | Product List | Glossary On
Versions: 1 2 3 4 5 6 7 8 9 10 11 12 13 14 15 16 17 18 19 20 21 22 23 24 25 26 27 28 29 30 31 32 33 34 35 36
000
FTUS43 KOAX 312320
TAFOFK
TAF
KOFK 312320Z 0100/0124 15006KT 1 1/2SM -SN BR OVC007
     FM010400 08008KT 2SM -SN BR OVC005
     FM010700 04010KT 2SM -SN OVC004
     FM010800 02012G18KT 2SM -SN OVC004
     FM011200 35022G35KT 1SM -SN BLSN OVC004
     FM012000 35015G25KT 6SM -SN BLSN OVC012=

USA.gov is the U.S. government's official web portal to all federal, state and local government web resources and services.